Hovedside
METAR-TAF:

METAR-TAF

Lufthavner :

Eugene, Oregon, USA

breddegrad: 44-08-00N, lengdegrad: 123-12-52W, høyde over havet: 111 m

Gjeldene værobservasjon

Denne rapporten ble laget for 54 minutter siden, klokken 21:54 UTC
Vind 10 kt fra Nord
Temperatur 28°C
Luftfuktighet 17%
Trykk 1023 hPa
Sikt: 16.1 km
Skyfri himmel

METAR: KEUG 172154Z 01010KT 10SM CLR 28/01 A3020 RMK AO2 SLP226 T02780006

Tid: 15:48 (22:48 UTC)

Varsel

Denne rapporten ble laget for 5 timer og 25 minutter siden, klokken 17:23 UTC
Varsel gyldig fra 17. klokken 18 UTC til 18. klokken 18 UTC
Vind 5 kt fra Nord-nordøst
Sikt: 10 km
Skyfri himmel
Fra 17. klokken 2000 UTC
Vind 10 kt fra Nord-nordøst
Sikt: 10 km
Skyfri himmel
Fra 18. klokken 0300 UTC
Vind 5 kt fra Nord
Sikt: 10 km
Skyfri himmel
Fra 18. klokken 0800 UTC
Vind 3 kt fra skiftende retning
Sikt: 10 km
Skyfri himmel

TAF: KEUG 171723Z 1718/1818 02005KT P6SM SKC FM172000 02010KT P6SM SKC FM180300 01005KT P6SM SKC FM180800 VRB03KT P6SM SKC

Værobservasjoner og værvarsel for over 4000 flyplasser (METAR- og TAF-rapporter).

Tilgjengelige stasjoner er representert av de røde og gule prikkene på kartet.

Hold musepekeren over prikken for å se navnet på stasjonen.

Klikk så for å se værobservasjoner og -varsler.

For å forandre kartet kan du klikke på den grønne knappen med svart kryss for å zoome inn, på den grønne knappen med strek for å zoome ut, eller på de grønne pilene for å se tilstøtende kart.


METAR-TAF: